createdAt,value
2018-06-05T00:01:28.557Z,16.13
2018-06-05T00:03:57.050Z,16.47
2018-06-05T00:06:25.686Z,17.70
2018-06-05T00:08:54.177Z,17.30
2018-06-05T00:11:22.697Z,16.57
2018-06-05T00:13:51.335Z,17.17
2018-06-05T00:16:20.756Z,16.33
2018-06-05T00:18:49.256Z,16.97
2018-06-05T00:21:17.779Z,16.13
2018-06-05T00:23:46.373Z,17.57
2018-06-05T00:26:14.914Z,18.43
2018-06-05T00:28:43.460Z,17.83
2018-06-05T00:31:12.550Z,18.13
2018-06-05T00:33:41.036Z,18.03
2018-06-05T00:36:09.552Z,18.40
2018-06-05T00:38:38.049Z,18.90
2018-06-05T00:41:06.589Z,16.67
2018-06-05T00:43:35.109Z,18.50
2018-06-05T00:46:03.337Z,14.17
2018-06-05T00:48:31.825Z,18.97
2018-06-05T00:51:00.390Z,16.70
2018-06-05T00:53:28.861Z,19.00
2018-06-05T00:55:57.345Z,15.10
2018-06-05T00:58:25.970Z,18.47
2018-06-05T01:00:54.473Z,18.13
2018-06-05T01:03:23.001Z,18.20
2018-06-05T01:05:51.819Z,16.97
2018-06-05T01:08:20.309Z,13.30
2018-06-05T01:10:48.857Z,17.13
2018-06-05T01:13:17.360Z,17.77
2018-06-05T01:15:45.940Z,17.03
2018-06-05T01:18:14.429Z,15.17
2018-06-05T01:20:42.996Z,17.87
2018-06-05T01:23:11.494Z,16.57
2018-06-05T01:25:40.098Z,17.10
2018-06-05T01:28:08.584Z,14.50
2018-06-05T01:30:37.103Z,16.60
2018-06-05T01:33:05.264Z,17.93
2018-06-05T01:35:33.734Z,16.73
2018-06-05T01:38:02.260Z,15.13
2018-06-05T01:40:30.768Z,19.73
2018-06-05T01:42:59.244Z,17.20
2018-06-05T01:45:27.797Z,17.97
2018-06-05T01:47:56.304Z,16.37
2018-06-05T01:50:24.798Z,18.80
2018-06-05T01:52:53.297Z,18.43
2018-06-05T01:55:21.786Z,18.27
2018-06-05T01:57:50.316Z,18.07
2018-06-05T02:00:18.821Z,18.90
2018-06-05T02:02:47.370Z,19.33
2018-06-05T02:05:15.893Z,19.40
2018-06-05T02:07:44.457Z,19.93
2018-06-05T02:10:12.941Z,18.63
2018-06-05T02:12:42.162Z,17.50
2018-06-05T02:15:10.688Z,18.33
2018-06-05T02:17:39.343Z,19.53
2018-06-05T02:20:08.041Z,20.43
2018-06-05T02:22:36.550Z,20.03
2018-06-05T02:25:05.112Z,19.83
2018-06-05T02:27:33.594Z,18.50
2018-06-05T02:30:02.111Z,19.67
2018-06-05T02:32:30.664Z,19.70
2018-06-05T02:34:59.224Z,19.70
2018-06-05T02:37:28.526Z,19.23
2018-06-05T02:39:57.073Z,22.07
2018-06-05T02:42:26.329Z,19.67
2018-06-05T02:44:54.885Z,19.27
2018-06-05T02:47:23.406Z,18.53
2018-06-05T02:49:51.903Z,18.30
2018-06-05T02:52:20.827Z,18.05
2018-06-05T02:54:49.331Z,18.77
2018-06-05T02:57:24.240Z,19.57
2018-06-05T02:59:52.736Z,19.47
2018-06-05T03:02:21.225Z,20.87
2018-06-05T03:04:49.751Z,20.77
2018-06-05T03:07:18.373Z,19.30
2018-06-05T03:09:46.874Z,20.97
2018-06-05T03:12:15.385Z,21.17
2018-06-05T03:14:43.968Z,23.50
2018-06-05T03:17:12.484Z,23.33
2018-06-05T03:19:40.657Z,22.03
2018-06-05T03:22:09.194Z,21.97
2018-06-05T03:24:37.709Z,21.30
2018-06-05T03:27:06.214Z,23.27
2018-06-05T03:29:34.756Z,21.17
2018-06-05T03:32:03.357Z,20.93
2018-06-05T03:34:31.913Z,21.13
2018-06-05T03:37:00.510Z,21.57
2018-06-05T03:39:29.037Z,22.73
2018-06-05T03:41:57.572Z,22.80
2018-06-05T03:44:26.101Z,22.07
2018-06-05T03:46:54.694Z,20.57
2018-06-05T03:49:23.241Z,22.60
2018-06-05T03:51:51.761Z,24.77
2018-06-05T03:54:20.322Z,22.57
2018-06-05T03:56:48.892Z,18.60
2018-06-05T03:59:17.393Z,20.13
2018-06-05T04:01:45.905Z,25.33
2018-06-05T04:04:14.520Z,23.47
2018-06-05T04:06:43.028Z,24.10
2018-06-05T04:09:11.934Z,21.23
2018-06-05T04:11:40.449Z,21.87
2018-06-05T04:14:08.945Z,23.43
2018-06-05T04:16:37.493Z,23.50
2018-06-05T04:19:06.104Z,20.53
2018-06-05T04:21:34.591Z,21.57
2018-06-05T04:24:03.095Z,22.70
2018-06-05T04:26:31.690Z,17.30
2018-06-05T04:29:00.227Z,22.30
2018-06-05T04:31:28.686Z,22.17
2018-06-05T04:33:57.365Z,20.40
2018-06-05T04:36:25.882Z,22.03
2018-06-05T04:38:54.067Z,22.50
2018-06-05T04:41:23.557Z,21.60
2018-06-05T04:43:52.057Z,20.07
2018-06-05T04:46:21.065Z,21.68
2018-06-05T04:48:49.578Z,19.50
2018-06-05T04:51:18.065Z,15.60
2018-06-05T04:53:46.569Z,20.23
2018-06-05T04:56:15.058Z,21.83
2018-06-05T04:58:44.025Z,18.93
2018-06-05T05:01:12.581Z,20.43
2018-06-05T05:03:41.137Z,20.80
2018-06-05T05:06:09.320Z,20.63
2018-06-05T05:08:37.857Z,21.07
2018-06-05T05:11:06.386Z,19.67
2018-06-05T05:13:34.863Z,25.27
2018-06-05T05:16:03.415Z,22.67
2018-06-05T05:18:31.926Z,24.03
2018-06-05T05:21:00.494Z,26.00
2018-06-05T05:23:29.093Z,23.90
2018-06-05T05:25:57.292Z,26.60
2018-06-05T05:28:26.234Z,25.83
2018-06-05T05:30:54.842Z,21.60
2018-06-05T05:33:23.869Z,21.20
2018-06-05T05:35:52.112Z,27.27
2018-06-05T05:38:21.010Z,26.73
2018-06-05T05:40:49.601Z,27.97
2018-06-05T05:43:17.837Z,26.30
2018-06-05T05:45:46.349Z,25.50
2018-06-05T05:48:14.883Z,24.20
2018-06-05T05:50:43.446Z,22.33
2018-06-05T05:53:11.646Z,25.03
2018-06-05T05:55:40.166Z,18.57
2018-06-05T05:58:08.755Z,23.83
2018-06-05T06:00:37.382Z,23.10
2018-06-05T06:03:05.950Z,25.60
2018-06-05T06:05:34.162Z,24.43
2018-06-05T06:08:02.785Z,26.20
2018-06-05T06:10:31.378Z,19.27
2018-06-05T06:13:00.502Z,26.40
2018-06-05T06:15:29.019Z,27.93
2018-06-05T06:17:57.601Z,25.83
2018-06-05T06:20:27.052Z,25.33
2018-06-05T06:22:55.590Z,28.27
2018-06-05T06:25:24.177Z,25.57
2018-06-05T06:27:52.739Z,27.93
2018-06-05T06:30:21.269Z,26.47
2018-06-05T06:32:49.765Z,28.53
2018-06-05T06:35:18.313Z,27.53
2018-06-05T06:37:47.550Z,28.37
2018-06-05T06:40:16.166Z,28.67
2018-06-05T06:42:44.756Z,27.73
2018-06-05T06:45:13.273Z,27.17
2018-06-05T06:47:42.569Z,25.00
2018-06-05T06:50:11.077Z,29.30
2018-06-05T06:52:40.788Z,29.00
2018-06-05T06:55:09.316Z,23.97
2018-06-05T06:57:37.520Z,23.03
2018-06-05T07:00:06.077Z,27.83
2018-06-05T07:02:34.278Z,27.77
2018-06-05T07:05:02.872Z,23.90
2018-06-05T07:07:32.167Z,26.67
2018-06-05T07:10:00.782Z,24.17
2018-06-05T07:12:29.309Z,24.70
2018-06-05T07:14:57.853Z,27.17
2018-06-05T07:17:26.369Z,26.10
2018-06-05T07:19:54.898Z,24.67
2018-06-05T07:22:23.470Z,26.87
2018-06-05T07:24:52.046Z,25.50
2018-06-05T07:27:20.611Z,24.83
2018-06-05T07:29:49.177Z,25.50
2018-06-05T07:32:17.636Z,22.77
2018-06-05T07:34:46.146Z,27.43
2018-06-05T07:37:14.710Z,28.10
2018-06-05T07:39:43.201Z,28.57
2018-06-05T07:42:12.382Z,20.63
2018-06-05T07:44:40.920Z,27.50
2018-06-05T07:47:09.077Z,26.00
2018-06-05T07:49:37.608Z,26.13
2018-06-05T07:52:06.130Z,27.07
2018-06-05T07:54:34.681Z,25.43
2018-06-05T07:57:03.198Z,26.93
2018-06-05T07:59:31.799Z,26.30
2018-06-05T08:02:00.305Z,26.53
2018-06-05T08:04:28.842Z,24.70
2018-06-05T08:06:57.356Z,22.17
2018-06-05T08:09:25.950Z,26.20
2018-06-05T08:11:54.173Z,26.80
2018-06-05T08:14:22.642Z,26.27
2018-06-05T08:16:51.206Z,26.43
2018-06-05T08:19:19.699Z,26.23
2018-06-05T08:21:48.322Z,25.13
2018-06-05T08:24:16.833Z,27.17
2018-06-05T08:26:49.205Z,27.87
2018-06-05T08:29:18.705Z,26.33
2018-06-05T08:31:47.240Z,28.63
2018-06-05T08:34:15.809Z,27.80
2018-06-05T08:36:44.359Z,26.33
2018-06-05T08:39:12.878Z,29.43
2018-06-05T08:41:41.417Z,26.40
2018-06-05T08:44:09.960Z,29.00
2018-06-05T08:46:38.544Z,26.60
2018-06-05T08:49:07.089Z,26.70
2018-06-05T08:51:35.701Z,26.20
2018-06-05T08:54:04.329Z,26.87
2018-06-05T08:56:32.822Z,27.97
2018-06-05T08:59:01.440Z,26.33
2018-06-05T09:01:30.089Z,27.17
2018-06-05T09:03:58.290Z,24.13
2018-06-05T09:06:26.477Z,24.87
2018-06-05T09:08:55.070Z,26.93
2018-06-05T09:11:23.652Z,24.20
2018-06-05T09:13:52.185Z,24.43
2018-06-05T09:16:20.701Z,26.73
2018-06-05T09:18:49.257Z,26.87
2018-06-05T09:21:17.785Z,27.10
2018-06-05T09:23:46.288Z,26.67
2018-06-05T09:26:14.832Z,28.53
2018-06-05T09:28:43.394Z,29.03
2018-06-05T09:31:11.985Z,27.53
2018-06-05T09:33:40.498Z,27.33
2018-06-05T09:36:09.135Z,26.93
2018-06-05T09:38:37.625Z,28.57
2018-06-05T09:41:06.160Z,26.13
2018-06-05T09:43:34.333Z,25.10
2018-06-05T09:46:02.864Z,26.43
2018-06-05T09:48:31.360Z,25.50
2018-06-05T09:50:59.924Z,24.77
2018-06-05T09:53:28.394Z,24.03
2018-06-05T09:55:56.920Z,25.70
2018-06-05T09:58:25.565Z,24.97
2018-06-05T10:00:53.990Z,23.00
2018-06-05T10:03:22.625Z,24.63
2018-06-05T10:05:51.090Z,25.13
2018-06-05T10:08:19.609Z,22.67
2018-06-05T10:10:48.142Z,23.57
2018-06-05T10:13:16.656Z,20.97
2018-06-05T10:15:45.194Z,22.07
2018-06-05T10:18:14.541Z,23.07
2018-06-05T10:20:43.697Z,22.90
2018-06-05T10:23:12.220Z,22.17
2018-06-05T10:25:40.705Z,20.80
2018-06-05T10:28:09.315Z,20.37
2018-06-05T10:30:37.825Z,20.67
2018-06-05T10:33:06.390Z,20.37
2018-06-05T10:35:34.856Z,21.73
2018-06-05T10:38:03.321Z,17.23
2018-06-05T10:40:31.857Z,20.87
2018-06-05T10:43:01.116Z,23.23
2018-06-05T10:45:30.360Z,23.23
2018-06-05T10:47:58.862Z,22.00
2018-06-05T10:50:27.362Z,22.60
2018-06-05T10:52:55.926Z,21.90
2018-06-05T10:55:24.447Z,23.40
2018-06-05T10:57:53.001Z,23.57
2018-06-05T11:00:21.302Z,15.97
2018-06-05T11:02:49.800Z,20.00
2018-06-05T11:05:18.310Z,18.93
2018-06-05T11:07:46.847Z,22.07
2018-06-05T11:10:15.017Z,20.73
2018-06-05T11:12:43.818Z,25.00
2018-06-05T11:15:12.297Z,21.23
2018-06-05T11:17:40.524Z,21.87
2018-06-05T11:20:09.042Z,22.67
2018-06-05T11:22:38.244Z,23.10
2018-06-05T11:25:06.856Z,20.83
2018-06-05T11:27:35.387Z,15.23
2018-06-05T11:30:04.659Z,21.63
2018-06-05T11:32:33.160Z,23.33
2018-06-05T11:35:01.682Z,23.83
2018-06-05T11:37:30.233Z,23.17
2018-06-05T11:39:58.719Z,22.97
2018-06-05T11:42:27.205Z,23.63
2018-06-05T11:44:55.779Z,23.47
2018-06-05T11:47:24.345Z,23.87
2018-06-05T11:49:52.861Z,25.00
2018-06-05T11:52:21.395Z,21.33
2018-06-05T11:54:49.908Z,24.80
2018-06-05T11:57:18.479Z,18.97
2018-06-05T11:59:46.998Z,25.40
2018-06-05T12:02:15.509Z,24.20
2018-06-05T12:04:43.734Z,18.73
2018-06-05T12:07:12.305Z,24.87
2018-06-05T12:09:40.884Z,19.57
2018-06-05T12:12:09.402Z,24.03
2018-06-05T12:14:37.923Z,20.53
2018-06-05T12:17:07.165Z,24.47
2018-06-05T12:19:35.694Z,25.10
2018-06-05T12:22:03.914Z,24.20
2018-06-05T12:24:32.524Z,24.03
2018-06-05T12:27:01.074Z,22.90
2018-06-05T12:29:29.571Z,22.77
2018-06-05T12:31:58.109Z,24.03
2018-06-05T12:34:26.629Z,20.73
2018-06-05T12:36:55.242Z,22.93
2018-06-05T12:39:23.805Z,21.53
2018-06-05T12:41:52.321Z,22.80
2018-06-05T12:44:20.926Z,18.43
2018-06-05T12:46:49.529Z,22.43
2018-06-05T12:49:18.037Z,20.27
2018-06-05T12:51:46.600Z,22.53
2018-06-05T12:54:15.149Z,23.03
2018-06-05T12:56:43.768Z,21.97
2018-06-05T12:59:12.277Z,22.07
2018-06-05T13:01:40.842Z,23.53
2018-06-05T13:04:09.440Z,22.57
2018-06-05T13:06:37.949Z,19.63
2018-06-05T13:09:08.016Z,21.80
2018-06-05T13:11:36.590Z,23.60
2018-06-05T13:14:05.149Z,21.20
2018-06-05T13:16:33.727Z,17.27
2018-06-05T13:19:02.280Z,19.47
2018-06-05T13:21:30.780Z,21.10
2018-06-05T13:23:59.338Z,19.20
2018-06-05T13:26:27.921Z,19.80
2018-06-05T13:28:56.454Z,21.50
2018-06-05T13:31:25.001Z,19.07
2018-06-05T13:33:53.537Z,21.20
2018-06-05T13:36:22.045Z,20.90
2018-06-05T13:38:50.618Z,22.57
2018-06-05T13:41:18.893Z,20.07
2018-06-05T13:43:47.384Z,20.03
2018-06-05T13:46:15.596Z,21.07
2018-06-05T13:48:44.125Z,21.47
2018-06-05T13:51:12.626Z,21.77
2018-06-05T13:53:41.132Z,20.50
2018-06-05T13:56:09.661Z,20.47
2018-06-05T13:58:38.146Z,22.50
2018-06-05T14:01:06.655Z,22.43
2018-06-05T14:03:35.219Z,17.53
2018-06-05T14:06:03.810Z,17.70
2018-06-05T14:08:32.370Z,20.77
2018-06-05T14:11:00.897Z,21.93
2018-06-05T14:13:29.412Z,21.53
2018-06-05T14:15:58.074Z,19.63
2018-06-05T14:18:26.625Z,13.30
2018-06-05T14:20:55.231Z,20.77
2018-06-05T14:23:23.805Z,16.23
2018-06-05T14:25:52.428Z,17.80
2018-06-05T14:28:21.037Z,19.53
2018-06-05T14:30:49.682Z,21.43
2018-06-05T14:33:17.859Z,17.77
2018-06-05T14:35:46.388Z,20.37
2018-06-05T14:38:14.945Z,17.27
2018-06-05T14:40:43.520Z,22.70
2018-06-05T14:43:11.692Z,18.73
2018-06-05T14:45:40.274Z,20.57
2018-06-05T14:48:08.818Z,18.10
2018-06-05T14:50:37.411Z,17.23
2018-06-05T14:53:06.106Z,22.47
2018-06-05T14:55:34.794Z,20.20
2018-06-05T14:58:03.602Z,22.27
2018-06-05T15:00:32.216Z,20.83
2018-06-05T15:03:00.781Z,17.30
2018-06-05T15:05:29.321Z,24.17
2018-06-05T15:07:58.506Z,23.07
2018-06-05T15:10:27.133Z,20.77
2018-06-05T15:12:55.897Z,20.73
2018-06-05T15:15:24.466Z,22.10
2018-06-05T15:17:52.979Z,23.67
2018-06-05T15:20:21.553Z,22.13
2018-06-05T15:22:51.138Z,19.53
2018-06-05T15:25:20.318Z,20.17
2018-06-05T15:27:49.029Z,23.77
2018-06-05T15:30:17.778Z,21.37
2018-06-05T15:32:46.302Z,19.77
2018-06-05T15:35:14.785Z,17.57
2018-06-05T15:37:43.965Z,22.87
2018-06-05T15:40:13.264Z,19.67
2018-06-05T15:42:41.794Z,19.73
2018-06-05T15:45:10.353Z,24.10
2018-06-05T15:47:38.915Z,18.97
2018-06-05T15:50:07.479Z,22.10
2018-06-05T15:52:36.010Z,22.00
2018-06-05T15:55:04.714Z,23.30
2018-06-05T15:57:33.230Z,20.43
2018-06-05T16:00:01.810Z,21.70
2018-06-05T16:02:30.000Z,23.40
2018-06-05T16:04:58.495Z,15.47
2018-06-05T16:07:27.223Z,22.27
2018-06-05T16:09:55.761Z,20.83
2018-06-05T16:12:24.689Z,21.23
2018-06-05T16:14:53.226Z,19.47
2018-06-05T16:17:21.773Z,20.73
2018-06-05T16:19:50.304Z,21.37
2018-06-05T16:22:18.918Z,22.13
2018-06-05T16:24:47.477Z,18.40
2018-06-05T16:27:16.031Z,17.30
2018-06-05T16:29:44.602Z,19.93
2018-06-05T16:32:13.134Z,19.60
2018-06-05T16:34:41.786Z,23.70
2018-06-05T16:37:10.365Z,20.97
2018-06-05T16:39:38.918Z,19.40
2018-06-05T16:42:07.520Z,18.37
2018-06-05T16:44:36.010Z,21.83
2018-06-05T16:47:04.714Z,23.37
2018-06-05T16:49:33.372Z,18.60
2018-06-05T16:52:01.949Z,22.10
2018-06-05T16:54:30.469Z,22.87
2018-06-05T16:56:58.998Z,23.20
2018-06-05T16:59:27.545Z,20.47
2018-06-05T17:01:56.106Z,19.47
2018-06-05T17:04:24.840Z,20.77
2018-06-05T17:06:53.422Z,20.97
2018-06-05T17:09:21.946Z,20.20
2018-06-05T17:11:50.469Z,16.80
2018-06-05T17:14:18.978Z,21.07
2018-06-05T17:16:47.492Z,19.93
2018-06-05T17:19:16.041Z,22.27
2018-06-05T17:21:44.689Z,16.83
2018-06-05T17:24:13.312Z,19.30
2018-06-05T17:26:41.840Z,15.57
2018-06-05T17:29:10.426Z,19.57
2018-06-05T17:31:38.964Z,21.33
2018-06-05T17:34:07.219Z,25.13
2018-06-05T17:36:35.785Z,20.10
2018-06-05T17:39:05.794Z,22.03
2018-06-05T17:41:34.291Z,17.60
2018-06-05T17:44:03.040Z,16.97
2018-06-05T17:46:31.685Z,21.20
2018-06-05T17:49:00.529Z,19.73
2018-06-05T17:51:29.090Z,20.33
2018-06-05T17:53:57.659Z,22.23
2018-06-05T17:56:26.233Z,18.60
2018-06-05T17:58:54.820Z,22.43
2018-06-05T18:01:23.535Z,22.23
2018-06-05T18:03:52.045Z,16.27
2018-06-05T18:06:20.569Z,21.33
2018-06-05T18:08:48.800Z,20.97
2018-06-05T18:11:17.360Z,27.07
2018-06-05T18:13:45.976Z,23.27
2018-06-05T18:16:14.607Z,26.43
2018-06-05T18:18:43.159Z,21.07
2018-06-05T18:21:11.736Z,23.37
2018-06-05T18:23:40.311Z,25.03
2018-06-05T18:26:08.895Z,21.30
2018-06-05T18:28:37.481Z,25.00
2018-06-05T18:31:06.043Z,24.17
2018-06-05T18:33:34.540Z,21.67
2018-06-05T18:36:03.087Z,25.57
2018-06-05T18:38:31.618Z,21.53
2018-06-05T18:41:00.186Z,24.27
2018-06-05T18:43:28.681Z,24.17
2018-06-05T18:45:57.293Z,24.63
2018-06-05T18:48:25.789Z,22.93
2018-06-05T18:50:54.315Z,26.03
2018-06-05T18:53:22.878Z,26.67
2018-06-05T18:55:51.382Z,24.83
2018-06-05T18:58:19.897Z,22.03
2018-06-05T19:00:48.423Z,23.00
2018-06-05T19:03:16.948Z,23.63
2018-06-05T19:05:45.449Z,20.97
2018-06-05T19:08:13.993Z,26.83
2018-06-05T19:10:42.559Z,23.00
2018-06-05T19:13:11.096Z,20.60
2018-06-05T19:15:39.642Z,23.40
2018-06-05T19:18:08.167Z,26.57
2018-06-05T19:20:36.804Z,23.00
2018-06-05T19:23:05.689Z,21.70
2018-06-05T19:25:34.246Z,23.33
2018-06-05T19:28:02.873Z,21.80
2018-06-05T19:30:31.398Z,22.57
2018-06-05T19:32:59.957Z,22.47
2018-06-05T19:35:28.518Z,22.63
2018-06-05T19:37:57.079Z,19.60
2018-06-05T19:40:25.629Z,16.87
2018-06-05T19:42:54.145Z,18.20
2018-06-05T19:45:22.778Z,17.97
2018-06-05T19:47:51.441Z,16.97
2018-06-05T19:50:20.052Z,16.90
2018-06-05T19:52:48.629Z,16.47
2018-06-05T19:55:17.161Z,16.57
2018-06-05T19:57:45.704Z,16.67
2018-06-05T20:00:14.649Z,15.87
2018-06-05T20:02:43.173Z,17.97
2018-06-05T20:05:11.714Z,17.47
2018-06-05T20:07:40.379Z,17.87
2018-06-05T20:10:08.966Z,17.00
2018-06-05T20:12:37.493Z,17.43
2018-06-05T20:15:06.449Z,16.80
2018-06-05T20:17:35.054Z,16.90
2018-06-05T20:20:03.631Z,17.53
2018-06-05T20:22:32.194Z,17.93
2018-06-05T20:25:00.694Z,18.17
2018-06-05T20:27:29.464Z,18.70
2018-06-05T20:29:58.112Z,17.93
2018-06-05T20:32:26.702Z,18.17
2018-06-05T20:34:55.269Z,17.53
2018-06-05T20:37:23.973Z,18.12
2018-06-05T20:39:52.469Z,19.80
2018-06-05T20:42:20.974Z,16.73
2018-06-05T20:44:49.498Z,17.80
2018-06-05T20:47:18.070Z,16.83
2018-06-05T20:49:46.706Z,18.30
2018-06-05T20:52:15.234Z,20.27
2018-06-05T20:54:43.797Z,20.97
2018-06-05T20:57:12.388Z,17.40
2018-06-05T20:59:40.899Z,17.67
2018-06-05T21:02:09.471Z,19.07
2018-06-05T21:04:38.013Z,19.00
2018-06-05T21:07:06.529Z,17.30
2018-06-05T21:09:35.031Z,17.37
2018-06-05T21:12:03.577Z,15.87
2018-06-05T21:14:32.155Z,16.07
2018-06-05T21:17:00.767Z,16.17
2018-06-05T21:19:29.505Z,17.70
2018-06-05T21:21:58.240Z,14.70
2018-06-05T21:24:26.977Z,19.00
2018-06-05T21:26:55.195Z,15.93
2018-06-05T21:29:23.878Z,17.17
2018-06-05T21:31:52.429Z,13.83
2018-06-05T21:34:20.594Z,17.97
2018-06-05T21:36:49.142Z,18.67
2018-06-05T21:39:17.718Z,19.73
2018-06-05T21:41:46.198Z,21.07
2018-06-05T21:44:14.723Z,20.17
2018-06-05T21:46:43.237Z,19.43
2018-06-05T21:49:11.782Z,20.67
2018-06-05T21:51:40.393Z,18.43
2018-06-05T21:54:08.550Z,16.50
2018-06-05T21:56:37.133Z,20.37
2018-06-05T21:59:05.754Z,18.97
2018-06-05T22:01:34.298Z,19.23
2018-06-05T22:04:02.801Z,17.53
2018-06-05T22:06:31.305Z,19.47
2018-06-05T22:08:59.574Z,20.43
2018-06-05T22:11:28.961Z,17.40
2018-06-05T22:13:57.441Z,20.73
2018-06-05T22:16:25.981Z,20.93
2018-06-05T22:18:55.209Z,17.00
2018-06-05T22:21:23.703Z,19.67
2018-06-05T22:23:52.319Z,23.10
2018-06-05T22:26:20.821Z,22.53
2018-06-05T22:28:49.325Z,20.93
2018-06-05T22:31:17.797Z,18.10
2018-06-05T22:33:46.441Z,20.43
2018-06-05T22:36:14.935Z,23.23
2018-06-05T22:38:43.501Z,22.17
2018-06-05T22:41:12.165Z,20.40
2018-06-05T22:43:40.674Z,24.73
2018-06-05T22:46:08.877Z,21.30
2018-06-05T22:48:37.414Z,22.40
2018-06-05T22:51:05.905Z,22.63
2018-06-05T22:53:34.409Z,22.53
2018-06-05T22:56:02.943Z,21.20
2018-06-05T22:58:31.469Z,20.70
2018-06-05T23:00:59.998Z,21.80
2018-06-05T23:03:28.626Z,22.03
2018-06-05T23:05:57.177Z,18.57
2018-06-05T23:08:25.698Z,23.90
2018-06-05T23:10:54.341Z,27.20
2018-06-05T23:13:22.846Z,23.83
2018-06-05T23:15:51.386Z,24.50
2018-06-05T23:18:19.949Z,21.80
2018-06-05T23:20:48.473Z,21.63
2018-06-05T23:23:16.943Z,25.70
2018-06-05T23:25:45.442Z,23.37
2018-06-05T23:28:13.954Z,22.53
2018-06-05T23:30:42.590Z,20.83
2018-06-05T23:33:11.118Z,18.50
2018-06-05T23:35:39.611Z,18.37
2018-06-05T23:38:08.147Z,21.73
2018-06-05T23:40:36.618Z,25.57
2018-06-05T23:43:05.127Z,21.63
2018-06-05T23:45:33.667Z,21.40
2018-06-05T23:48:02.239Z,23.67
2018-06-05T23:50:30.861Z,21.73
2018-06-05T23:52:59.340Z,20.93
2018-06-05T23:55:27.854Z,21.70
2018-06-05T23:57:56.360Z,19.70
